sensor_id;sensor_type;location;lat;lon;timestamp;P1;durP1;ratioP1;P2;durP2;ratioP2
47912;SDS011;33676;51.006;17.180;2023-12-29T00:03:05;6.60;;;6.00;;
47912;SDS011;33676;51.006;17.180;2023-12-29T00:05:32;5.90;;;5.40;;
47912;SDS011;33676;51.006;17.180;2023-12-29T00:07:59;5.90;;;5.40;;
47912;SDS011;33676;51.006;17.180;2023-12-29T00:10:27;6.20;;;5.60;;
47912;SDS011;33676;51.006;17.180;2023-12-29T00:12:54;5.90;;;4.80;;
47912;SDS011;33676;51.006;17.180;2023-12-29T00:15:21;7.80;;;6.70;;
47912;SDS011;33676;51.006;17.180;2023-12-29T00:17:48;7.70;;;6.80;;
47912;SDS011;33676;51.006;17.180;2023-12-29T00:20:15;6.00;;;5.40;;
47912;SDS011;33676;51.006;17.180;2023-12-29T00:23:00;5.20;;;4.70;;
47912;SDS011;33676;51.006;17.180;2023-12-29T00:25:27;5.40;;;4.90;;
47912;SDS011;33676;51.006;17.180;2023-12-29T00:27:54;5.10;;;4.60;;
47912;SDS011;33676;51.006;17.180;2023-12-29T00:30:21;8.00;;;6.00;;
47912;SDS011;33676;51.006;17.180;2023-12-29T00:32:49;7.30;;;6.10;;
47912;SDS011;33676;51.006;17.180;2023-12-29T00:35:16;6.70;;;5.70;;
47912;SDS011;33676;51.006;17.180;2023-12-29T00:37:43;8.00;;;6.80;;
47912;SDS011;33676;51.006;17.180;2023-12-29T00:40:10;7.00;;;6.10;;
47912;SDS011;33676;51.006;17.180;2023-12-29T00:42:38;7.40;;;5.80;;
47912;SDS011;33676;51.006;17.180;2023-12-29T00:45:05;8.20;;;6.40;;
47912;SDS011;33676;51.006;17.180;2023-12-29T00:47:33;8.50;;;5.80;;
47912;SDS011;33676;51.006;17.180;2023-12-29T00:50:01;6.40;;;5.80;;
47912;SDS011;33676;51.006;17.180;2023-12-29T00:52:28;9.90;;;7.30;;
47912;SDS011;33676;51.006;17.180;2023-12-29T00:54:55;8.40;;;6.30;;
47912;SDS011;33676;51.006;17.180;2023-12-29T00:57:22;6.80;;;6.10;;
47912;SDS011;33676;51.006;17.180;2023-12-29T00:59:49;8.90;;;6.20;;
47912;SDS011;33676;51.006;17.180;2023-12-29T01:02:17;7.40;;;6.60;;
47912;SDS011;33676;51.006;17.180;2023-12-29T01:04:44;8.50;;;7.30;;
47912;SDS011;33676;51.006;17.180;2023-12-29T01:07:11;9.00;;;5.90;;
47912;SDS011;33676;51.006;17.180;2023-12-29T01:09:38;8.20;;;7.20;;
47912;SDS011;33676;51.006;17.180;2023-12-29T01:12:09;7.20;;;5.90;;
47912;SDS011;33676;51.006;17.180;2023-12-29T01:14:36;11.60;;;8.30;;
47912;SDS011;33676;51.006;17.180;2023-12-29T01:17:04;9.20;;;7.40;;
47912;SDS011;33676;51.006;17.180;2023-12-29T01:19:32;8.10;;;6.90;;
47912;SDS011;33676;51.006;17.180;2023-12-29T01:21:59;8.70;;;6.80;;
47912;SDS011;33676;51.006;17.180;2023-12-29T01:24:26;11.40;;;8.80;;
47912;SDS011;33676;51.006;17.180;2023-12-29T01:27:06;9.00;;;7.80;;
47912;SDS011;33676;51.006;17.180;2023-12-29T01:29:33;7.80;;;7.10;;
47912;SDS011;33676;51.006;17.180;2023-12-29T01:32:00;6.80;;;6.20;;
47912;SDS011;33676;51.006;17.180;2023-12-29T01:34:30;7.30;;;6.40;;
47912;SDS011;33676;51.006;17.180;2023-12-29T01:37:02;8.30;;;7.30;;
47912;SDS011;33676;51.006;17.180;2023-12-29T01:39:29;6.40;;;5.80;;
47912;SDS011;33676;51.006;17.180;2023-12-29T01:41:57;6.50;;;5.80;;
47912;SDS011;33676;51.006;17.180;2023-12-29T01:44:24;8.20;;;6.30;;
47912;SDS011;33676;51.006;17.180;2023-12-29T01:46:54;6.80;;;6.20;;
47912;SDS011;33676;51.006;17.180;2023-12-29T01:49:25;6.60;;;4.80;;
47912;SDS011;33676;51.006;17.180;2023-12-29T01:51:55;6.80;;;5.60;;
47912;SDS011;33676;51.006;17.180;2023-12-29T01:54:26;5.10;;;4.20;;
47912;SDS011;33676;51.006;17.180;2023-12-29T01:56:57;7.40;;;5.40;;
47912;SDS011;33676;51.006;17.180;2023-12-29T01:59:27;5.40;;;4.90;;
47912;SDS011;33676;51.006;17.180;2023-12-29T02:01:56;5.00;;;4.60;;
47912;SDS011;33676;51.006;17.180;2023-12-29T02:04:24;6.60;;;5.90;;
47912;SDS011;33676;51.006;17.180;2023-12-29T02:06:53;6.10;;;5.50;;
47912;SDS011;33676;51.006;17.180;2023-12-29T02:09:21;5.20;;;4.70;;
47912;SDS011;33676;51.006;17.180;2023-12-29T02:11:49;5.80;;;5.20;;
47912;SDS011;33676;51.006;17.180;2023-12-29T02:14:16;7.30;;;6.00;;
47912;SDS011;33676;51.006;17.180;2023-12-29T02:17:10;6.70;;;5.50;;
47912;SDS011;33676;51.006;17.180;2023-12-29T02:19:47;5.90;;;4.50;;
47912;SDS011;33676;51.006;17.180;2023-12-29T02:22:17;6.70;;;5.70;;
47912;SDS011;33676;51.006;17.180;2023-12-29T02:24:53;5.70;;;5.10;;
47912;SDS011;33676;51.006;17.180;2023-12-29T02:30:22;5.30;;;4.90;;
47912;SDS011;33676;51.006;17.180;2023-12-29T02:32:55;5.70;;;5.20;;
47912;SDS011;33676;51.006;17.180;2023-12-29T02:35:28;5.40;;;5.00;;
47912;SDS011;33676;51.006;17.180;2023-12-29T02:38:00;4.80;;;4.40;;
47912;SDS011;33676;51.006;17.180;2023-12-29T02:40:28;6.60;;;4.90;;
47912;SDS011;33676;51.006;17.180;2023-12-29T02:42:55;5.60;;;5.10;;
47912;SDS011;33676;51.006;17.180;2023-12-29T02:45:23;5.70;;;5.10;;
47912;SDS011;33676;51.006;17.180;2023-12-29T02:47:50;7.30;;;5.50;;
47912;SDS011;33676;51.006;17.180;2023-12-29T02:50:17;5.30;;;4.60;;
47912;SDS011;33676;51.006;17.180;2023-12-29T02:52:45;5.10;;;4.60;;
47912;SDS011;33676;51.006;17.180;2023-12-29T02:55:12;4.20;;;3.90;;
47912;SDS011;33676;51.006;17.180;2023-12-29T02:57:39;5.50;;;5.10;;
47912;SDS011;33676;51.006;17.180;2023-12-29T03:00:07;8.00;;;5.30;;
47912;SDS011;33676;51.006;17.180;2023-12-29T03:02:35;6.00;;;4.80;;
47912;SDS011;33676;51.006;17.180;2023-12-29T03:05:03;5.60;;;5.10;;
47912;SDS011;33676;51.006;17.180;2023-12-29T03:07:31;6.20;;;5.60;;
47912;SDS011;33676;51.006;17.180;2023-12-29T03:09:58;4.50;;;4.00;;
47912;SDS011;33676;51.006;17.180;2023-12-29T03:12:25;5.50;;;5.10;;
47912;SDS011;33676;51.006;17.180;2023-12-29T03:14:52;5.60;;;4.80;;
47912;SDS011;33676;51.006;17.180;2023-12-29T03:17:19;4.80;;;4.30;;
47912;SDS011;33676;51.006;17.180;2023-12-29T03:19:47;4.50;;;4.10;;
47912;SDS011;33676;51.006;17.180;2023-12-29T03:22:14;7.80;;;4.10;;
47912;SDS011;33676;51.006;17.180;2023-12-29T03:24:41;4.80;;;4.50;;
47912;SDS011;33676;51.006;17.180;2023-12-29T03:27:09;4.50;;;4.00;;
47912;SDS011;33676;51.006;17.180;2023-12-29T03:29:36;4.10;;;3.70;;
47912;SDS011;33676;51.006;17.180;2023-12-29T03:32:04;4.50;;;4.10;;
47912;SDS011;33676;51.006;17.180;2023-12-29T03:34:31;5.20;;;4.00;;
47912;SDS011;33676;51.006;17.180;2023-12-29T03:36:58;5.20;;;4.60;;
47912;SDS011;33676;51.006;17.180;2023-12-29T03:39:26;4.30;;;3.70;;
47912;SDS011;33676;51.006;17.180;2023-12-29T03:41:53;4.90;;;4.30;;
47912;SDS011;33676;51.006;17.180;2023-12-29T03:44:20;4.10;;;3.80;;
47912;SDS011;33676;51.006;17.180;2023-12-29T03:46:47;4.60;;;4.00;;
47912;SDS011;33676;51.006;17.180;2023-12-29T03:49:16;5.00;;;4.40;;
47912;SDS011;33676;51.006;17.180;2023-12-29T03:51:44;4.30;;;3.60;;
47912;SDS011;33676;51.006;17.180;2023-12-29T03:54:11;4.00;;;3.70;;
47912;SDS011;33676;51.006;17.180;2023-12-29T03:56:38;4.60;;;4.20;;
47912;SDS011;33676;51.006;17.180;2023-12-29T03:59:05;4.30;;;4.00;;
47912;SDS011;33676;51.006;17.180;2023-12-29T04:01:33;6.20;;;5.00;;
47912;SDS011;33676;51.006;17.180;2023-12-29T04:04:01;4.20;;;3.80;;
47912;SDS011;33676;51.006;17.180;2023-12-29T04:06:28;5.20;;;4.80;;
47912;SDS011;33676;51.006;17.180;2023-12-29T04:08:56;4.30;;;3.80;;
47912;SDS011;33676;51.006;17.180;2023-12-29T04:11:23;4.30;;;4.00;;
47912;SDS011;33676;51.006;17.180;2023-12-29T04:13:51;4.60;;;3.90;;
47912;SDS011;33676;51.006;17.180;2023-12-29T04:16:18;4.60;;;3.70;;
47912;SDS011;33676;51.006;17.180;2023-12-29T04:18:45;4.30;;;4.00;;
47912;SDS011;33676;51.006;17.180;2023-12-29T04:21:15;4.10;;;3.80;;
47912;SDS011;33676;51.006;17.180;2023-12-29T04:23:42;4.20;;;3.90;;
47912;SDS011;33676;51.006;17.180;2023-12-29T04:26:10;5.60;;;4.90;;
47912;SDS011;33676;51.006;17.180;2023-12-29T04:28:37;6.10;;;4.50;;
47912;SDS011;33676;51.006;17.180;2023-12-29T04:31:04;5.20;;;4.70;;
47912;SDS011;33676;51.006;17.180;2023-12-29T04:33:32;5.00;;;4.60;;
47912;SDS011;33676;51.006;17.180;2023-12-29T04:35:59;5.30;;;4.60;;
47912;SDS011;33676;51.006;17.180;2023-12-29T04:38:26;3.80;;;3.50;;
47912;SDS011;33676;51.006;17.180;2023-12-29T04:40:53;5.80;;;4.50;;
47912;SDS011;33676;51.006;17.180;2023-12-29T04:43:21;5.00;;;4.50;;
47912;SDS011;33676;51.006;17.180;2023-12-29T04:45:48;6.00;;;3.80;;
47912;SDS011;33676;51.006;17.180;2023-12-29T04:48:15;5.30;;;4.10;;
47912;SDS011;33676;51.006;17.180;2023-12-29T04:50:43;5.60;;;5.00;;
47912;SDS011;33676;51.006;17.180;2023-12-29T04:53:10;6.00;;;4.70;;
47912;SDS011;33676;51.006;17.180;2023-12-29T04:55:37;4.60;;;4.10;;
47912;SDS011;33676;51.006;17.180;2023-12-29T04:58:04;4.60;;;4.10;;
47912;SDS011;33676;51.006;17.180;2023-12-29T05:00:31;5.70;;;5.10;;
47912;SDS011;33676;51.006;17.180;2023-12-29T05:02:59;6.50;;;5.80;;
47912;SDS011;33676;51.006;17.180;2023-12-29T05:05:26;5.60;;;4.20;;
47912;SDS011;33676;51.006;17.180;2023-12-29T05:07:54;4.30;;;3.90;;
47912;SDS011;33676;51.006;17.180;2023-12-29T05:10:21;4.30;;;4.00;;
47912;SDS011;33676;51.006;17.180;2023-12-29T05:12:48;5.10;;;4.50;;
47912;SDS011;33676;51.006;17.180;2023-12-29T05:15:15;4.50;;;4.10;;
47912;SDS011;33676;51.006;17.180;2023-12-29T05:17:42;3.80;;;3.50;;
47912;SDS011;33676;51.006;17.180;2023-12-29T05:20:10;4.20;;;3.90;;
47912;SDS011;33676;51.006;17.180;2023-12-29T05:22:38;5.30;;;4.80;;
47912;SDS011;33676;51.006;17.180;2023-12-29T05:25:05;4.60;;;4.20;;
47912;SDS011;33676;51.006;17.180;2023-12-29T05:27:33;4.30;;;3.90;;
47912;SDS011;33676;51.006;17.180;2023-12-29T05:30:02;6.50;;;4.90;;
47912;SDS011;33676;51.006;17.180;2023-12-29T05:32:30;5.20;;;4.50;;
47912;SDS011;33676;51.006;17.180;2023-12-29T05:34:57;4.80;;;4.40;;
47912;SDS011;33676;51.006;17.180;2023-12-29T05:37:24;10.40;;;5.60;;
47912;SDS011;33676;51.006;17.180;2023-12-29T05:39:51;5.80;;;4.80;;
47912;SDS011;33676;51.006;17.180;2023-12-29T05:42:18;6.80;;;5.60;;
47912;SDS011;33676;51.006;17.180;2023-12-29T05:44:45;7.20;;;4.70;;
47912;SDS011;33676;51.006;17.180;2023-12-29T05:47:13;6.30;;;5.60;;
47912;SDS011;33676;51.006;17.180;2023-12-29T05:49:40;4.80;;;4.40;;
47912;SDS011;33676;51.006;17.180;2023-12-29T05:52:07;5.40;;;4.80;;
47912;SDS011;33676;51.006;17.180;2023-12-29T05:54:35;4.60;;;4.20;;
47912;SDS011;33676;51.006;17.180;2023-12-29T05:57:02;4.40;;;4.00;;
47912;SDS011;33676;51.006;17.180;2023-12-29T05:59:30;5.20;;;4.80;;
47912;SDS011;33676;51.006;17.180;2023-12-29T06:01:57;4.60;;;4.20;;
47912;SDS011;33676;51.006;17.180;2023-12-29T06:04:24;4.00;;;3.70;;
47912;SDS011;33676;51.006;17.180;2023-12-29T06:06:52;4.20;;;3.80;;
47912;SDS011;33676;51.006;17.180;2023-12-29T06:09:19;4.40;;;3.90;;
47912;SDS011;33676;51.006;17.180;2023-12-29T06:11:46;4.90;;;4.40;;
47912;SDS011;33676;51.006;17.180;2023-12-29T06:14:13;4.10;;;3.40;;
47912;SDS011;33676;51.006;17.180;2023-12-29T06:16:41;6.00;;;3.20;;
47912;SDS011;33676;51.006;17.180;2023-12-29T06:19:08;4.80;;;3.70;;
47912;SDS011;33676;51.006;17.180;2023-12-29T06:21:43;4.60;;;4.20;;
47912;SDS011;33676;51.006;17.180;2023-12-29T06:24:11;4.00;;;3.60;;
47912;SDS011;33676;51.006;17.180;2023-12-29T06:26:38;5.60;;;4.00;;
47912;SDS011;33676;51.006;17.180;2023-12-29T06:29:10;3.70;;;3.40;;
47912;SDS011;33676;51.006;17.180;2023-12-29T06:31:40;4.50;;;3.70;;
47912;SDS011;33676;51.006;17.180;2023-12-29T06:34:11;4.00;;;3.60;;
47912;SDS011;33676;51.006;17.180;2023-12-29T06:36:38;4.10;;;3.20;;
47912;SDS011;33676;51.006;17.180;2023-12-29T06:39:05;3.50;;;2.90;;
47912;SDS011;33676;51.006;17.180;2023-12-29T06:41:33;4.60;;;4.20;;
47912;SDS011;33676;51.006;17.180;2023-12-29T06:44:00;4.30;;;3.90;;
47912;SDS011;33676;51.006;17.180;2023-12-29T06:46:27;4.00;;;3.60;;
47912;SDS011;33676;51.006;17.180;2023-12-29T06:48:54;4.00;;;3.70;;
47912;SDS011;33676;51.006;17.180;2023-12-29T06:51:22;3.90;;;3.60;;
47912;SDS011;33676;51.006;17.180;2023-12-29T06:53:50;4.50;;;3.50;;
47912;SDS011;33676;51.006;17.180;2023-12-29T06:56:17;4.60;;;3.10;;
47912;SDS011;33676;51.006;17.180;2023-12-29T06:58:45;4.10;;;3.30;;
47912;SDS011;33676;51.006;17.180;2023-12-29T07:01:12;4.20;;;3.60;;
47912;SDS011;33676;51.006;17.180;2023-12-29T07:03:40;4.40;;;3.70;;
47912;SDS011;33676;51.006;17.180;2023-12-29T07:06:08;3.60;;;3.10;;
47912;SDS011;33676;51.006;17.180;2023-12-29T07:08:36;2.80;;;2.60;;
47912;SDS011;33676;51.006;17.180;2023-12-29T07:11:03;4.20;;;3.60;;
47912;SDS011;33676;51.006;17.180;2023-12-29T07:13:31;4.30;;;2.90;;
47912;SDS011;33676;51.006;17.180;2023-12-29T07:15:58;3.50;;;3.20;;
47912;SDS011;33676;51.006;17.180;2023-12-29T07:18:25;4.10;;;3.70;;
47912;SDS011;33676;51.006;17.180;2023-12-29T07:20:53;3.30;;;3.00;;
47912;SDS011;33676;51.006;17.180;2023-12-29T07:23:20;3.60;;;3.30;;
47912;SDS011;33676;51.006;17.180;2023-12-29T07:25:47;3.40;;;2.50;;
47912;SDS011;33676;51.006;17.180;2023-12-29T07:28:15;3.60;;;2.50;;
47912;SDS011;33676;51.006;17.180;2023-12-29T07:30:42;3.00;;;2.80;;
47912;SDS011;33676;51.006;17.180;2023-12-29T07:33:09;2.70;;;2.60;;
47912;SDS011;33676;51.006;17.180;2023-12-29T07:35:36;3.60;;;3.30;;
47912;SDS011;33676;51.006;17.180;2023-12-29T07:38:06;4.10;;;3.80;;
47912;SDS011;33676;51.006;17.180;2023-12-29T07:40:33;3.80;;;3.40;;
47912;SDS011;33676;51.006;17.180;2023-12-29T07:43:00;4.60;;;3.80;;
47912;SDS011;33676;51.006;17.180;2023-12-29T07:45:27;2.90;;;2.70;;
47912;SDS011;33676;51.006;17.180;2023-12-29T07:47:55;5.10;;;3.80;;
47912;SDS011;33676;51.006;17.180;2023-12-29T07:50:26;2.90;;;2.70;;
47912;SDS011;33676;51.006;17.180;2023-12-29T07:52:54;3.30;;;2.50;;
47912;SDS011;33676;51.006;17.180;2023-12-29T07:55:22;2.60;;;2.30;;
47912;SDS011;33676;51.006;17.180;2023-12-29T07:57:52;3.60;;;2.50;;
47912;SDS011;33676;51.006;17.180;2023-12-29T08:00:20;3.10;;;2.60;;
47912;SDS011;33676;51.006;17.180;2023-12-29T08:02:51;3.10;;;2.50;;
47912;SDS011;33676;51.006;17.180;2023-12-29T08:05:19;3.30;;;3.00;;
47912;SDS011;33676;51.006;17.180;2023-12-29T08:07:47;2.90;;;2.60;;
47912;SDS011;33676;51.006;17.180;2023-12-29T08:10:14;4.60;;;3.40;;
47912;SDS011;33676;51.006;17.180;2023-12-29T08:12:43;2.60;;;2.30;;
47912;SDS011;33676;51.006;17.180;2023-12-29T08:15:13;4.50;;;4.00;;
47912;SDS011;33676;51.006;17.180;2023-12-29T08:17:41;4.00;;;3.00;;
47912;SDS011;33676;51.006;17.180;2023-12-29T08:20:09;3.80;;;3.50;;
47912;SDS011;33676;51.006;17.180;2023-12-29T08:22:36;4.70;;;3.30;;
47912;SDS011;33676;51.006;17.180;2023-12-29T08:25:05;3.50;;;3.20;;
47912;SDS011;33676;51.006;17.180;2023-12-29T08:27:35;4.40;;;3.00;;
47912;SDS011;33676;51.006;17.180;2023-12-29T08:30:07;3.80;;;3.50;;
47912;SDS011;33676;51.006;17.180;2023-12-29T08:32:35;5.40;;;3.20;;
47912;SDS011;33676;51.006;17.180;2023-12-29T08:35:02;3.20;;;2.90;;
47912;SDS011;33676;51.006;17.180;2023-12-29T08:37:33;3.80;;;3.40;;
47912;SDS011;33676;51.006;17.180;2023-12-29T08:40:00;4.00;;;3.00;;
47912;SDS011;33676;51.006;17.180;2023-12-29T08:42:29;3.80;;;3.20;;
47912;SDS011;33676;51.006;17.180;2023-12-29T08:44:59;7.50;;;5.00;;
47912;SDS011;33676;51.006;17.180;2023-12-29T08:47:27;10.00;;;6.20;;
47912;SDS011;33676;51.006;17.180;2023-12-29T08:49:54;6.90;;;4.50;;
47912;SDS011;33676;51.006;17.180;2023-12-29T08:52:21;4.20;;;3.90;;
47912;SDS011;33676;51.006;17.180;2023-12-29T08:54:49;2.80;;;2.50;;
47912;SDS011;33676;51.006;17.180;2023-12-29T08:57:16;5.70;;;4.30;;
47912;SDS011;33676;51.006;17.180;2023-12-29T08:59:43;5.80;;;5.20;;
47912;SDS011;33676;51.006;17.180;2023-12-29T09:02:10;4.70;;;3.40;;
47912;SDS011;33676;51.006;17.180;2023-12-29T09:04:38;4.70;;;4.20;;
47912;SDS011;33676;51.006;17.180;2023-12-29T09:07:05;5.60;;;3.20;;
47912;SDS011;33676;51.006;17.180;2023-12-29T09:09:32;3.90;;;3.40;;
47912;SDS011;33676;51.006;17.180;2023-12-29T09:11:59;3.90;;;3.20;;
47912;SDS011;33676;51.006;17.180;2023-12-29T09:14:26;2.90;;;2.20;;
47912;SDS011;33676;51.006;17.180;2023-12-29T09:16:56;2.30;;;2.00;;
47912;SDS011;33676;51.006;17.180;2023-12-29T09:19:24;2.00;;;1.80;;
47912;SDS011;33676;51.006;17.180;2023-12-29T09:22:05;2.00;;;1.90;;
47912;SDS011;33676;51.006;17.180;2023-12-29T09:24:33;2.10;;;1.90;;
47912;SDS011;33676;51.006;17.180;2023-12-29T09:27:00;1.50;;;1.50;;
47912;SDS011;33676;51.006;17.180;2023-12-29T09:29:28;2.00;;;1.90;;
47912;SDS011;33676;51.006;17.180;2023-12-29T09:31:55;2.30;;;2.20;;
47912;SDS011;33676;51.006;17.180;2023-12-29T09:34:22;2.90;;;1.90;;
47912;SDS011;33676;51.006;17.180;2023-12-29T09:36:50;2.30;;;2.20;;
47912;SDS011;33676;51.006;17.180;2023-12-29T09:39:17;1.90;;;1.80;;
47912;SDS011;33676;51.006;17.180;2023-12-29T09:41:46;3.20;;;1.80;;
47912;SDS011;33676;51.006;17.180;2023-12-29T09:44:20;2.00;;;1.90;;
47912;SDS011;33676;51.006;17.180;2023-12-29T09:46:49;1.90;;;1.80;;
47912;SDS011;33676;51.006;17.180;2023-12-29T09:49:20;2.50;;;2.30;;
47912;SDS011;33676;51.006;17.180;2023-12-29T09:51:48;3.70;;;3.20;;
47912;SDS011;33676;51.006;17.180;2023-12-29T09:54:16;5.30;;;4.40;;
47912;SDS011;33676;51.006;17.180;2023-12-29T09:56:45;2.50;;;2.30;;
47912;SDS011;33676;51.006;17.180;2023-12-29T09:59:12;2.20;;;2.10;;
47912;SDS011;33676;51.006;17.180;2023-12-29T10:01:41;2.80;;;2.60;;
47912;SDS011;33676;51.006;17.180;2023-12-29T10:04:09;2.40;;;1.70;;
47912;SDS011;33676;51.006;17.180;2023-12-29T10:06:38;4.10;;;2.80;;
47912;SDS011;33676;51.006;17.180;2023-12-29T10:09:14;2.20;;;2.00;;
47912;SDS011;33676;51.006;17.180;2023-12-29T10:11:43;4.40;;;3.10;;
47912;SDS011;33676;51.006;17.180;2023-12-29T10:14:56;1.70;;;1.60;;
47912;SDS011;33676;51.006;17.180;2023-12-29T10:17:52;2.60;;;2.40;;
47912;SDS011;33676;51.006;17.180;2023-12-29T10:23:40;2.10;;;1.90;;
47912;SDS011;33676;51.006;17.180;2023-12-29T10:26:11;2.40;;;2.10;;
47912;SDS011;33676;51.006;17.180;2023-12-29T10:28:39;2.50;;;2.10;;
47912;SDS011;33676;51.006;17.180;2023-12-29T10:31:06;1.80;;;1.70;;
47912;SDS011;33676;51.006;17.180;2023-12-29T10:33:41;3.80;;;2.30;;
47912;SDS011;33676;51.006;17.180;2023-12-29T10:36:08;2.10;;;1.70;;
47912;SDS011;33676;51.006;17.180;2023-12-29T10:38:39;2.50;;;2.40;;
47912;SDS011;33676;51.006;17.180;2023-12-29T10:41:14;1.40;;;1.40;;
47912;SDS011;33676;51.006;17.180;2023-12-29T10:43:44;1.70;;;1.60;;
47912;SDS011;33676;51.006;17.180;2023-12-29T10:46:19;3.20;;;2.00;;
47912;SDS011;33676;51.006;17.180;2023-12-29T10:48:49;2.30;;;1.80;;
47912;SDS011;33676;51.006;17.180;2023-12-29T10:51:16;1.90;;;1.50;;
47912;SDS011;33676;51.006;17.180;2023-12-29T10:53:55;1.70;;;1.60;;
47912;SDS011;33676;51.006;17.180;2023-12-29T10:56:25;1.90;;;1.80;;
47912;SDS011;33676;51.006;17.180;2023-12-29T10:59:04;4.20;;;3.80;;
47912;SDS011;33676;51.006;17.180;2023-12-29T11:01:33;4.80;;;4.50;;
47912;SDS011;33676;51.006;17.180;2023-12-29T11:04:02;5.00;;;4.60;;
47912;SDS011;33676;51.006;17.180;2023-12-29T11:06:44;3.10;;;2.90;;
47912;SDS011;33676;51.006;17.180;2023-12-29T11:09:14;1.70;;;1.70;;
47912;SDS011;33676;51.006;17.180;2023-12-29T11:11:41;2.20;;;2.00;;
47912;SDS011;33676;51.006;17.180;2023-12-29T11:14:10;2.00;;;1.90;;
47912;SDS011;33676;51.006;17.180;2023-12-29T11:16:38;3.60;;;2.10;;
47912;SDS011;33676;51.006;17.180;2023-12-29T11:19:06;2.10;;;2.00;;
47912;SDS011;33676;51.006;17.180;2023-12-29T11:21:34;2.80;;;2.20;;
47912;SDS011;33676;51.006;17.180;2023-12-29T11:24:03;2.20;;;2.10;;
47912;SDS011;33676;51.006;17.180;2023-12-29T11:26:30;2.50;;;2.30;;
47912;SDS011;33676;51.006;17.180;2023-12-29T11:28:57;2.00;;;1.90;;
47912;SDS011;33676;51.006;17.180;2023-12-29T11:31:24;2.60;;;1.70;;
47912;SDS011;33676;51.006;17.180;2023-12-29T11:33:56;2.20;;;2.00;;
47912;SDS011;33676;51.006;17.180;2023-12-29T11:36:32;2.20;;;2.00;;
47912;SDS011;33676;51.006;17.180;2023-12-29T11:39:27;2.40;;;2.30;;
47912;SDS011;33676;51.006;17.180;2023-12-29T11:42:21;4.80;;;2.70;;
47912;SDS011;33676;51.006;17.180;2023-12-29T11:44:54;1.80;;;1.70;;
47912;SDS011;33676;51.006;17.180;2023-12-29T11:47:37;2.50;;;2.10;;
47912;SDS011;33676;51.006;17.180;2023-12-29T11:50:05;2.30;;;2.10;;
47912;SDS011;33676;51.006;17.180;2023-12-29T11:52:37;1.90;;;1.80;;
47912;SDS011;33676;51.006;17.180;2023-12-29T11:55:15;2.20;;;2.00;;
47912;SDS011;33676;51.006;17.180;2023-12-29T11:57:45;2.10;;;1.90;;
47912;SDS011;33676;51.006;17.180;2023-12-29T12:00:12;2.90;;;2.30;;
47912;SDS011;33676;51.006;17.180;2023-12-29T12:02:40;2.40;;;2.20;;
47912;SDS011;33676;51.006;17.180;2023-12-29T12:05:11;1.90;;;1.80;;
47912;SDS011;33676;51.006;17.180;2023-12-29T12:10:29;2.70;;;2.10;;
47912;SDS011;33676;51.006;17.180;2023-12-29T12:13:00;2.00;;;1.90;;
47912;SDS011;33676;51.006;17.180;2023-12-29T12:17:57;3.20;;;2.30;;
47912;SDS011;33676;51.006;17.180;2023-12-29T12:20:25;2.60;;;2.40;;
47912;SDS011;33676;51.006;17.180;2023-12-29T12:22:59;2.90;;;2.60;;
47912;SDS011;33676;51.006;17.180;2023-12-29T12:25:31;2.70;;;2.50;;
47912;SDS011;33676;51.006;17.180;2023-12-29T12:28:07;2.30;;;2.10;;
47912;SDS011;33676;51.006;17.180;2023-12-29T12:30:36;3.10;;;2.10;;
47912;SDS011;33676;51.006;17.180;2023-12-29T12:33:04;2.40;;;2.30;;
47912;SDS011;33676;51.006;17.180;2023-12-29T12:35:33;2.90;;;2.70;;
47912;SDS011;33676;51.006;17.180;2023-12-29T12:38:16;3.30;;;2.70;;
47912;SDS011;33676;51.006;17.180;2023-12-29T12:40:51;2.70;;;2.50;;
47912;SDS011;33676;51.006;17.180;2023-12-29T12:43:18;4.50;;;3.60;;
47912;SDS011;33676;51.006;17.180;2023-12-29T12:45:48;2.90;;;2.70;;
47912;SDS011;33676;51.006;17.180;2023-12-29T12:48:28;3.90;;;2.70;;
47912;SDS011;33676;51.006;17.180;2023-12-29T12:51:01;3.20;;;2.70;;
47912;SDS011;33676;51.006;17.180;2023-12-29T12:53:30;4.40;;;4.00;;
47912;SDS011;33676;51.006;17.180;2023-12-29T12:55:57;7.40;;;5.80;;
47912;SDS011;33676;51.006;17.180;2023-12-29T12:58:25;4.20;;;2.80;;
47912;SDS011;33676;51.006;17.180;2023-12-29T13:00:57;3.20;;;2.90;;
47912;SDS011;33676;51.006;17.180;2023-12-29T13:03:26;4.20;;;2.90;;
47912;SDS011;33676;51.006;17.180;2023-12-29T13:05:53;3.00;;;2.70;;
47912;SDS011;33676;51.006;17.180;2023-12-29T13:08:21;3.70;;;3.40;;
47912;SDS011;33676;51.006;17.180;2023-12-29T13:11:01;3.00;;;2.70;;
47912;SDS011;33676;51.006;17.180;2023-12-29T13:13:38;3.70;;;3.40;;
47912;SDS011;33676;51.006;17.180;2023-12-29T13:16:07;3.20;;;2.90;;
47912;SDS011;33676;51.006;17.180;2023-12-29T13:18:35;3.00;;;2.70;;
47912;SDS011;33676;51.006;17.180;2023-12-29T13:21:02;2.90;;;2.70;;
47912;SDS011;33676;51.006;17.180;2023-12-29T13:23:31;3.10;;;2.40;;
47912;SDS011;33676;51.006;17.180;2023-12-29T13:26:04;2.50;;;2.40;;
47912;SDS011;33676;51.006;17.180;2023-12-29T13:28:35;3.30;;;2.90;;
47912;SDS011;33676;51.006;17.180;2023-12-29T13:31:10;2.60;;;2.40;;
47912;SDS011;33676;51.006;17.180;2023-12-29T13:33:49;2.40;;;2.20;;
47912;SDS011;33676;51.006;17.180;2023-12-29T13:36:43;2.30;;;2.20;;
47912;SDS011;33676;51.006;17.180;2023-12-29T13:39:30;4.40;;;3.50;;
47912;SDS011;33676;51.006;17.180;2023-12-29T13:42:09;2.90;;;2.40;;
47912;SDS011;33676;51.006;17.180;2023-12-29T13:44:38;2.60;;;2.40;;
47912;SDS011;33676;51.006;17.180;2023-12-29T13:47:08;2.50;;;2.30;;
47912;SDS011;33676;51.006;17.180;2023-12-29T13:49:36;3.90;;;3.60;;
47912;SDS011;33676;51.006;17.180;2023-12-29T13:52:05;5.20;;;4.70;;
47912;SDS011;33676;51.006;17.180;2023-12-29T13:54:42;3.60;;;3.30;;
47912;SDS011;33676;51.006;17.180;2023-12-29T13:57:11;5.20;;;4.00;;
47912;SDS011;33676;51.006;17.180;2023-12-29T13:59:39;14.70;;;12.80;;
47912;SDS011;33676;51.006;17.180;2023-12-29T14:02:20;13.70;;;12.30;;
47912;SDS011;33676;51.006;17.180;2023-12-29T14:04:50;9.50;;;7.30;;
47912;SDS011;33676;51.006;17.180;2023-12-29T14:07:19;13.00;;;10.00;;
47912;SDS011;33676;51.006;17.180;2023-12-29T14:09:54;12.60;;;11.10;;
47912;SDS011;33676;51.006;17.180;2023-12-29T14:12:24;9.50;;;8.40;;
47912;SDS011;33676;51.006;17.180;2023-12-29T14:14:53;8.10;;;6.90;;
47912;SDS011;33676;51.006;17.180;2023-12-29T14:17:22;7.50;;;6.50;;
47912;SDS011;33676;51.006;17.180;2023-12-29T14:19:49;4.40;;;3.80;;
47912;SDS011;33676;51.006;17.180;2023-12-29T14:22:26;5.80;;;5.30;;
47912;SDS011;33676;51.006;17.180;2023-12-29T14:25:06;9.10;;;7.30;;
47912;SDS011;33676;51.006;17.180;2023-12-29T14:27:34;11.20;;;9.90;;
47912;SDS011;33676;51.006;17.180;2023-12-29T14:30:01;5.50;;;4.80;;
47912;SDS011;33676;51.006;17.180;2023-12-29T14:32:29;4.50;;;4.00;;
47912;SDS011;33676;51.006;17.180;2023-12-29T14:34:58;5.40;;;4.70;;
47912;SDS011;33676;51.006;17.180;2023-12-29T14:37:25;4.90;;;4.50;;
47912;SDS011;33676;51.006;17.180;2023-12-29T14:39:52;4.30;;;3.90;;
47912;SDS011;33676;51.006;17.180;2023-12-29T14:42:19;3.80;;;3.40;;
47912;SDS011;33676;51.006;17.180;2023-12-29T14:44:47;6.80;;;6.20;;
47912;SDS011;33676;51.006;17.180;2023-12-29T14:47:17;5.50;;;4.90;;
47912;SDS011;33676;51.006;17.180;2023-12-29T14:49:44;5.30;;;4.80;;
47912;SDS011;33676;51.006;17.180;2023-12-29T14:52:12;5.00;;;4.30;;
47912;SDS011;33676;51.006;17.180;2023-12-29T14:54:39;5.10;;;4.60;;
47912;SDS011;33676;51.006;17.180;2023-12-29T14:57:07;7.20;;;4.90;;
47912;SDS011;33676;51.006;17.180;2023-12-29T14:59:42;7.70;;;6.50;;